Time;durP1;ratioP1;P1;durP2;ratioP2;P2;SDS_P1;SDS_P2;PMS_P1;PMS_P2;Temp;Humidity;BMP_temperature;BMP_pressure;BME280_temperature;BME280_humidity;BME280_pressure;Samples;Min_cycle;Max_cycle;Signal;HPM_P1;HPM_P2
2022/11/08 00:01:30;;;;;;;27.67;16.83;;;10.10;99.90;;;;;;5116924;28;20426;-70
2022/11/08 00:03:56;;;;;;;27.85;17.90;;;10.10;99.90;;;;;;5117061;28;20588;-70
2022/11/08 00:14:34;;;;;;;32.60;19.10;;;9.90;99.90;;;;;;5116987;28;20207;-71
2022/11/08 00:17:00;;;;;;;32.53;18.77;;;9.90;99.90;;;;;;5098638;28;20172;-70
2022/11/08 00:19:25;;;;;;;34.07;18.93;;;9.80;99.90;;;;;;5116669;28;20593;-70
2022/11/08 00:21:51;;;;;;;31.83;18.30;;;9.80;99.90;;;;;;5116383;28;20198;-71
2022/11/08 00:24:16;;;;;;;34.50;17.60;;;9.80;99.90;;;;;;5116071;28;20235;-70
2022/11/08 00:26:42;;;;;;;33.77;17.90;;;9.80;99.90;;;;;;5116281;28;20177;-70
2022/11/08 00:29:07;;;;;;;27.23;18.73;;;9.70;99.90;;;;;;5116383;28;20397;-70
2022/11/08 00:31:33;;;;;;;29.43;17.80;;;9.70;99.90;;;;;;5116237;28;20179;-70
2022/11/08 00:34:17;;;;;;;36.23;19.60;;;9.60;99.90;;;;;;5116444;28;20182;-70
2022/11/08 00:36:43;;;;;;;30.20;17.45;;;9.60;99.90;;;;;;5116140;28;20207;-70
2022/11/08 00:39:09;;;;;;;36.33;17.97;;;9.50;99.90;;;;;;5116260;28;20180;-70
2022/11/08 00:41:35;;;;;;;35.90;17.70;;;9.50;99.90;;;;;;5097701;28;20244;-70
2022/11/08 00:44:01;;;;;;;27.93;16.50;;;9.40;99.90;;;;;;5116173;28;20184;-70
2022/11/08 00:46:26;;;;;;;32.10;17.57;;;9.40;99.90;;;;;;5097667;28;20248;-70
2022/11/08 00:48:52;;;;;;;30.83;17.97;;;9.40;99.90;;;;;;5115656;28;20260;-70
2022/11/08 00:51:18;;;;;;;34.97;19.60;;;9.30;99.90;;;;;;5115759;28;20744;-70
2022/11/08 00:53:43;;;;;;;43.93;19.97;;;9.30;99.90;;;;;;5097510;28;20574;-70
2022/11/08 00:56:11;;;;;;;35.70;19.00;;;9.20;99.90;;;;;;5114526;28;20246;-70
2022/11/08 00:58:36;;;;;;;36.47;19.65;;;9.20;99.90;;;;;;5097455;28;20180;-70
2022/11/08 01:01:13;;;;;;;37.77;20.57;;;9.20;99.90;;;;;;5097273;28;20263;-71
2022/11/08 01:03:39;;;;;;;35.97;20.92;;;9.10;99.90;;;;;;5097336;28;20187;-71
2022/11/08 01:06:06;;;;;;;44.57;22.23;;;9.10;99.90;;;;;;5115457;28;20248;-70
2022/11/08 01:08:32;;;;;;;45.63;23.02;;;9.00;99.90;;;;;;5115641;28;20171;-70
2022/11/08 01:11:01;;;;;;;56.73;25.33;;;9.00;99.90;;;;;;5115269;28;20704;-70
2022/11/08 01:13:27;;;;;;;46.83;21.38;;;9.00;99.90;;;;;;5115660;28;20176;-70
2022/11/08 01:15:53;;;;;;;44.93;20.10;;;8.90;99.90;;;;;;5097088;28;20218;-70
2022/11/08 01:18:19;;;;;;;49.33;21.93;;;8.90;99.90;;;;;;5096944;28;20187;-70
2022/11/08 01:20:47;;;;;;;53.30;24.30;;;8.80;99.90;;;;;;5115118;28;20240;-70
2022/11/08 01:23:13;;;;;;;44.95;20.95;;;8.80;99.90;;;;;;5096822;28;20416;-70
2022/11/08 01:25:41;;;;;;;43.70;20.80;;;8.70;99.90;;;;;;5096726;28;20253;-70
2022/11/08 01:28:06;;;;;;;48.45;21.85;;;8.70;99.90;;;;;;5114974;28;20540;-70
2022/11/08 01:30:40;;;;;;;40.20;21.03;;;8.70;99.90;;;;;;5114893;28;20208;-70
2022/11/08 01:33:06;;;;;;;34.45;20.70;;;8.60;99.90;;;;;;5097059;28;20625;-70
2022/11/08 01:35:33;;;;;;;49.42;21.92;;;8.60;99.90;;;;;;5114975;28;20219;-70
2022/11/08 01:37:59;;;;;;;45.03;22.77;;;8.60;99.90;;;;;;5114895;28;20184;-70
2022/11/08 01:40:27;;;;;;;46.25;19.70;;;8.50;99.90;;;;;;5114753;28;20191;-70
2022/11/08 01:42:53;;;;;;;38.08;20.13;;;8.50;99.90;;;;;;5114757;28;20203;-70
2022/11/08 01:45:56;;;;;;;39.97;21.00;;;8.50;99.90;;;;;;5114655;28;20198;-70
2022/11/08 01:48:24;;;;;;;44.75;17.08;;;8.50;99.90;;;;;;5114837;28;20179;-71
2022/11/08 01:50:51;;;;;;;56.97;22.35;;;8.40;99.90;;;;;;5114688;28;20239;-70
2022/11/08 01:53:18;;;;;;;52.28;24.17;;;8.40;99.90;;;;;;5114775;28;20740;-70
2022/11/08 01:55:45;;;;;;;47.53;24.50;;;8.40;99.90;;;;;;5096278;28;20236;-70
2022/11/08 01:58:18;;;;;;;43.92;22.55;;;8.30;99.90;;;;;;5096204;28;20179;-70
2022/11/08 02:00:44;;;;;;;37.92;20.23;;;8.30;99.90;;;;;;5114495;28;20190;-70
2022/11/08 02:03:14;;;;;;;42.43;24.23;;;8.30;99.90;;;;;;5114562;28;20635;-70
2022/11/08 02:05:40;;;;;;;40.08;20.30;;;8.20;99.90;;;;;;5114039;28;20678;-70
2022/11/08 02:08:20;;;;;;;37.70;18.90;;;8.20;99.90;;;;;;5096239;28;20180;-71
2022/11/08 02:10:49;;;;;;;45.95;18.67;;;8.20;99.90;;;;;;5114282;28;20692;-70
2022/11/08 02:13:17;;;;;;;43.47;19.15;;;8.20;99.90;;;;;;5114483;28;20176;-70
2022/11/08 02:15:43;;;;;;;39.67;16.10;;;8.10;99.90;;;;;;5095853;28;20196;-70
2022/11/08 02:18:10;;;;;;;30.93;16.37;;;8.10;99.90;;;;;;5114250;28;20194;-70
2022/11/08 02:20:36;;;;;;;28.38;14.75;;;8.00;99.90;;;;;;5114206;28;20419;-71
2022/11/08 02:23:12;;;;;;;32.07;17.10;;;8.00;99.90;;;;;;5114294;28;20184;-70
2022/11/08 02:25:38;;;;;;;32.45;14.75;;;8.00;99.90;;;;;;5114185;28;20234;-70
2022/11/08 02:28:04;;;;;;;33.60;13.33;;;7.90;99.90;;;;;;5095881;28;20176;-70
2022/11/08 02:30:34;;;;;;;33.47;15.77;;;7.90;99.90;;;;;;5114021;28;20243;-70
2022/11/08 02:33:12;;;;;;;31.15;12.35;;;7.90;99.90;;;;;;5114078;28;20229;-71
2022/11/08 02:35:37;;;;;;;28.40;12.25;;;7.80;99.90;;;;;;5095927;28;20542;-70
2022/11/08 02:38:03;;;;;;;25.77;13.70;;;7.80;99.90;;;;;;5095796;28;20183;-70
2022/11/08 02:40:28;;;;;;;20.83;12.50;;;7.80;99.90;;;;;;5114035;28;20719;-70
2022/11/08 02:42:54;;;;;;;21.10;11.87;;;7.70;99.90;;;;;;5095831;28;20177;-70
2022/11/08 02:45:19;;;;;;;29.27;14.50;;;7.80;99.90;;;;;;5113959;28;20187;-70
2022/11/08 02:47:45;;;;;;;22.97;13.50;;;7.70;99.90;;;;;;5114025;28;20178;-70
2022/11/08 02:50:10;;;;;;;29.83;13.10;;;7.70;99.90;;;;;;5095631;28;20258;-70
2022/11/08 02:52:36;;;;;;;30.33;14.60;;;7.70;99.90;;;;;;5113968;28;20172;-70
2022/11/08 02:55:02;;;;;;;20.23;12.13;;;7.70;99.90;;;;;;5114289;28;20195;-70
2022/11/08 02:57:27;;;;;;;28.73;13.90;;;7.70;99.90;;;;;;5113910;28;20176;-70
2022/11/08 02:59:53;;;;;;;38.03;16.60;;;7.60;99.90;;;;;;5114251;28;20248;-70
2022/11/08 03:02:18;;;;;;;39.53;19.90;;;7.60;99.90;;;;;;5113845;28;20542;-71
2022/11/08 03:04:44;;;;;;;39.73;19.23;;;7.60;99.90;;;;;;5114172;28;20535;-70
2022/11/08 03:07:09;;;;;;;35.87;19.20;;;7.70;99.90;;;;;;5095518;28;20180;-70
2022/11/08 03:09:35;;;;;;;32.07;18.10;;;7.70;99.90;;;;;;5113491;28;20700;-70
2022/11/08 03:12:01;;;;;;;34.83;16.50;;;7.70;99.90;;;;;;5113748;28;20168;-70
2022/11/08 03:14:26;;;;;;;33.70;15.80;;;7.60;99.90;;;;;;5113977;28;20660;-72
2022/11/08 03:16:52;;;;;;;30.23;13.67;;;7.60;99.90;;;;;;5113747;28;20172;-71
2022/11/08 03:19:17;;;;;;;24.60;13.17;;;7.60;99.90;;;;;;5116542;28;20176;-70
2022/11/08 03:21:43;;;;;;;21.40;12.83;;;7.60;99.90;;;;;;5117569;28;20637;-70
2022/11/08 03:24:10;;;;;;;32.30;13.70;;;7.60;99.90;;;;;;5095532;28;20647;-71
2022/11/08 03:26:36;;;;;;;23.98;13.30;;;7.50;99.90;;;;;;5095842;28;20278;-70
2022/11/08 03:29:02;;;;;;;27.47;13.80;;;7.50;99.90;;;;;;5097174;28;20184;-70
2022/11/08 03:31:27;;;;;;;34.37;17.33;;;7.40;99.90;;;;;;5095780;28;20656;-70
2022/11/08 03:33:53;;;;;;;35.67;17.07;;;7.40;99.90;;;;;;5097169;28;20184;-70
2022/11/08 03:36:18;;;;;;;29.33;16.63;;;7.30;99.90;;;;;;5096870;28;20192;-71
2022/11/08 03:38:44;;;;;;;31.03;15.67;;;7.30;99.90;;;;;;5095507;28;20227;-70
2022/11/08 03:41:09;;;;;;;31.53;16.27;;;7.30;99.90;;;;;;5096879;28;20196;-70
2022/11/08 03:43:35;;;;;;;25.00;13.97;;;7.20;99.90;;;;;;5096767;28;20257;-70
2022/11/08 03:46:00;;;;;;;26.43;13.47;;;7.20;99.90;;;;;;5096667;28;20544;-70
2022/11/08 03:48:27;;;;;;;20.77;13.27;;;7.20;99.90;;;;;;5096835;28;20177;-70
2022/11/08 03:50:52;;;;;;;23.98;11.88;;;7.10;99.90;;;;;;5096506;28;20220;-70
2022/11/08 03:53:18;;;;;;;25.00;10.70;;;7.10;99.90;;;;;;5096544;28;20258;-70
2022/11/08 03:55:43;;;;;;;17.50;11.93;;;7.10;99.90;;;;;;5096482;28;20737;-70
2022/11/08 03:58:09;;;;;;;28.90;12.73;;;7.00;99.90;;;;;;5096431;28;20626;-70
2022/11/08 04:00:35;;;;;;;20.73;12.40;;;7.00;99.90;;;;;;5096399;28;20216;-70
2022/11/08 04:03:02;;;;;;;21.33;10.67;;;7.00;99.90;;;;;;5095144;28;20269;-70
2022/11/08 04:05:31;;;;;;;21.45;12.35;;;7.00;99.90;;;;;;5096615;28;20199;-71
2022/11/08 04:07:57;;;;;;;27.45;11.13;;;6.90;99.90;;;;;;5095470;28;20637;-70
2022/11/08 04:10:23;;;;;;;22.15;11.98;;;6.90;99.90;;;;;;5096087;28;20212;-70
2022/11/08 04:15:32;;;;;;;29.20;12.70;;;6.90;99.90;;;;;;5096438;28;20218;-70
2022/11/08 04:23:31;;;;;;;25.90;12.10;;;6.80;99.90;;;;;;5098808;28;20284;-70
2022/11/08 04:25:59;;;;;;;12.63;9.57;;;6.90;99.90;;;;;;5116355;28;20687;-70
2022/11/08 04:28:26;;;;;;;17.45;10.80;;;6.80;99.90;;;;;;5098082;28;20542;-70
2022/11/08 04:30:53;;;;;;;18.90;9.90;;;6.80;99.90;;;;;;5097634;28;20218;-70
2022/11/08 04:33:19;;;;;;;19.05;9.15;;;6.70;99.90;;;;;;5097896;28;20184;-70
2022/11/08 04:35:45;;;;;;;14.80;8.73;;;6.70;99.90;;;;;;5116097;28;20560;-70
2022/11/08 04:38:10;;;;;;;22.80;9.73;;;6.70;99.90;;;;;;5097675;28;20184;-70
2022/11/08 04:40:36;;;;;;;15.50;9.37;;;6.60;99.90;;;;;;5114682;28;20203;-70
2022/11/08 04:43:01;;;;;;;13.17;9.70;;;6.60;99.90;;;;;;5097737;28;20175;-70
2022/11/08 04:45:27;;;;;;;12.50;8.57;;;6.50;99.90;;;;;;5115948;28;20199;-71
2022/11/08 04:47:52;;;;;;;18.60;9.10;;;6.50;99.90;;;;;;5115925;28;20195;-71
2022/11/08 04:50:18;;;;;;;13.80;8.17;;;6.40;99.90;;;;;;5115651;28;20222;-70
2022/11/08 04:52:51;;;;;;;12.90;8.13;;;6.40;99.90;;;;;;5115787;28;20168;-71
2022/11/08 04:55:17;;;;;;;10.55;7.95;;;6.30;99.90;;;;;;5097487;28;20199;-70
2022/11/08 04:57:43;;;;;;;11.23;8.70;;;6.30;99.90;;;;;;5115742;28;20654;-71
2022/11/08 05:00:09;;;;;;;12.47;8.93;;;6.30;99.90;;;;;;5096731;28;20221;-70
2022/11/08 05:02:35;;;;;;;11.60;8.40;;;6.30;99.90;;;;;;5080505;28;20176;-70
2022/11/08 05:05:01;;;;;;;14.30;9.67;;;6.30;99.90;;;;;;5115888;28;20725;-70
2022/11/08 05:07:28;;;;;;;13.03;8.10;;;6.30;99.90;;;;;;5115527;28;20172;-70
2022/11/08 05:09:54;;;;;;;11.68;8.52;;;6.20;99.90;;;;;;5115914;28;20219;-70
2022/11/08 05:12:20;;;;;;;13.18;8.77;;;6.20;99.90;;;;;;5097136;28;20611;-70
2022/11/08 05:14:46;;;;;;;23.13;8.67;;;6.20;99.90;;;;;;5097188;28;20235;-70
2022/11/08 05:17:11;;;;;;;12.00;8.90;;;6.20;99.90;;;;;;5115280;28;20385;-70
2022/11/08 05:25:06;;;;;;;14.48;8.85;;;6.30;99.90;;;;;;5114996;28;20308;-70
2022/11/08 05:27:33;;;;;;;12.38;9.00;;;6.30;99.90;;;;;;5114852;28;20637;-70
2022/11/08 05:29:59;;;;;;;18.02;9.35;;;6.30;99.90;;;;;;5115093;28;20288;-70
2022/11/08 05:32:25;;;;;;;15.73;8.40;;;6.30;99.90;;;;;;5115029;28;20172;-71
2022/11/08 05:34:50;;;;;;;15.33;8.97;;;6.30;99.90;;;;;;5115369;28;20444;-70
2022/11/08 05:37:16;;;;;;;14.97;8.90;;;6.30;99.90;;;;;;5115007;28;20260;-70
2022/11/08 05:39:41;;;;;;;11.63;9.23;;;6.30;99.90;;;;;;5115303;28;20676;-70
2022/11/08 05:42:07;;;;;;;16.10;8.70;;;6.40;99.90;;;;;;5114150;28;20196;-71
2022/11/08 05:44:33;;;;;;;12.90;8.73;;;6.40;99.90;;;;;;5096395;28;20212;-70
2022/11/08 05:46:58;;;;;;;14.20;8.77;;;6.40;99.90;;;;;;5114835;28;20168;-70
2022/11/08 05:49:24;;;;;;;23.30;10.13;;;6.40;99.90;;;;;;5096292;28;20231;-71
2022/11/08 05:51:49;;;;;;;17.67;9.73;;;6.50;99.90;;;;;;5114670;28;20164;-70
2022/11/08 05:54:15;;;;;;;11.03;8.33;;;6.50;99.90;;;;;;5114706;28;20232;-70
2022/11/08 05:56:41;;;;;;;24.20;9.80;;;6.50;99.90;;;;;;5113858;28;20168;-70
2022/11/08 05:59:06;;;;;;;13.03;9.87;;;6.60;99.90;;;;;;5095097;28;20180;-70
2022/11/08 06:01:32;;;;;;;16.40;9.60;;;6.60;99.90;;;;;;5114297;28;20636;-71
2022/11/08 06:03:57;;;;;;;21.50;11.73;;;6.60;99.90;;;;;;5096365;28;20176;-71
2022/11/08 06:06:23;;;;;;;19.83;12.40;;;6.70;99.90;;;;;;5114347;28;20184;-70
2022/11/08 06:08:50;;;;;;;16.43;12.20;;;6.70;99.90;;;;;;5114607;28;20726;-70
2022/11/08 06:11:24;;;;;;;20.50;13.00;;;6.70;99.90;;;;;;5114194;28;20207;-70
2022/11/08 06:13:51;;;;;;;21.23;13.63;;;6.70;99.90;;;;;;5096071;28;20183;-70
2022/11/08 06:16:19;;;;;;;12.50;9.55;;;6.70;99.90;;;;;;5095794;28;20195;-70
2022/11/08 06:18:44;;;;;;;13.50;9.45;;;6.70;99.90;;;;;;5095442;28;20187;-70
2022/11/08 06:21:12;;;;;;;10.13;7.30;;;6.60;99.90;;;;;;5112891;28;20656;-71
2022/11/08 06:23:38;;;;;;;14.05;8.10;;;6.60;99.90;;;;;;5093347;28;20223;-71
2022/11/08 06:26:03;;;;;;;19.33;9.00;;;6.50;99.90;;;;;;5113200;28;20201;-71
2022/11/08 06:28:29;;;;;;;12.37;9.10;;;6.40;99.90;;;;;;5095243;28;20187;-70
2022/11/08 06:30:58;;;;;;;11.60;8.13;;;6.40;99.90;;;;;;5095382;28;20467;-71
2022/11/08 06:33:24;;;;;;;19.52;11.93;;;6.50;99.90;;;;;;5113391;28;20270;-71
2022/11/08 06:35:50;;;;;;;26.13;15.60;;;6.50;99.90;;;;;;5112939;28;20691;-70
2022/11/08 06:38:16;;;;;;;18.00;12.25;;;6.60;99.90;;;;;;5095059;28;20267;-70
2022/11/08 06:40:41;;;;;;;15.10;9.90;;;6.60;99.90;;;;;;5112501;28;20668;-71
2022/11/08 06:43:12;;;;;;;10.80;9.10;;;6.70;99.90;;;;;;5095305;28;20420;-70
2022/11/08 06:45:38;;;;;;;24.65;14.35;;;6.70;99.90;;;;;;5093546;28;20199;-70
2022/11/08 06:48:05;;;;;;;21.50;12.60;;;6.80;99.90;;;;;;5109695;28;20176;-70
2022/11/08 06:50:32;;;;;;;23.60;14.15;;;6.80;99.90;;;;;;5097093;28;20216;-70
2022/11/08 06:53:06;;;;;;;24.55;16.00;;;7.00;99.90;;;;;;5092218;28;20181;-71
2022/11/08 06:55:33;;;;;;;18.55;12.60;;;7.00;99.90;;;;;;5106841;28;20291;-70
2022/11/08 06:57:58;;;;;;;22.83;11.95;;;7.10;99.90;;;;;;5115732;28;20196;-70
2022/11/08 07:00:25;;;;;;;17.03;12.00;;;7.20;99.90;;;;;;5094239;28;20764;-70
2022/11/08 07:02:55;;;;;;;22.50;12.40;;;7.30;99.90;;;;;;5087681;28;20187;-70
2022/11/08 07:05:21;;;;;;;21.13;15.85;;;7.40;99.90;;;;;;5091692;28;20700;-71
2022/11/08 07:07:53;;;;;;;21.10;13.13;;;7.50;99.90;;;;;;5075192;28;20218;-71
2022/11/08 07:10:20;;;;;;;16.92;12.30;;;7.60;99.90;;;;;;5093108;28;21073;-71
2022/11/08 07:12:47;;;;;;;20.90;13.00;;;7.80;99.90;;;;;;5093748;28;20571;-70
2022/11/08 07:15:13;;;;;;;23.65;14.50;;;7.90;99.90;;;;;;5093722;28;20279;-70
2022/11/08 07:17:39;;;;;;;24.23;14.30;;;7.90;99.90;;;;;;5094262;28;20634;-70
2022/11/08 07:20:05;;;;;;;25.70;14.37;;;8.00;99.90;;;;;;5073816;28;20207;-70
2022/11/08 07:22:31;;;;;;;26.38;16.58;;;8.10;99.90;;;;;;5094909;28;20179;-70
2022/11/08 07:24:57;;;;;;;20.87;15.33;;;8.30;99.90;;;;;;5094915;28;20236;-70
2022/11/08 07:27:22;;;;;;;28.60;17.47;;;8.40;99.90;;;;;;5094448;28;20405;-71
2022/11/08 07:29:48;;;;;;;24.10;15.60;;;8.70;99.90;;;;;;5094473;28;20243;-71
2022/11/08 07:32:13;;;;;;;24.13;16.27;;;9.00;99.90;;;;;;5076339;28;20176;-70
2022/11/08 07:34:39;;;;;;;34.87;18.73;;;9.30;99.90;;;;;;5095465;28;20539;-70
2022/11/08 07:37:04;;;;;;;28.47;18.03;;;9.70;99.90;;;;;;5078141;28;20725;-70
2022/11/08 07:39:30;;;;;;;31.57;17.40;;;10.20;99.90;;;;;;5095095;28;20254;-70
2022/11/08 07:41:56;;;;;;;26.37;15.97;;;10.80;99.90;;;;;;5096661;28;20213;-71
2022/11/08 07:44:21;;;;;;;28.43;17.83;;;11.30;99.90;;;;;;5078095;28;20204;-71
2022/11/08 07:46:47;;;;;;;29.10;18.80;;;11.80;99.90;;;;;;5095574;28;20176;-71
2022/11/08 07:49:12;;;;;;;31.17;17.70;;;12.20;99.90;;;;;;5094625;28;20183;-71
2022/11/08 07:51:38;;;;;;;24.70;16.00;;;12.70;99.90;;;;;;5074838;28;20169;-70
2022/11/08 07:54:03;;;;;;;27.50;18.53;;;13.30;99.90;;;;;;5091881;28;20538;-71
2022/11/08 07:56:29;;;;;;;83.17;46.10;;;13.80;99.90;;;;;;5092780;28;20179;-70
2022/11/08 07:58:55;;;;;;;22.73;15.60;;;14.20;99.90;;;;;;5110533;28;20732;-73
2022/11/08 08:01:21;;;;;;;16.30;13.33;;;14.90;99.90;;;;;;5094324;28;20420;-74
2022/11/08 08:03:46;;;;;;;16.53;12.60;;;15.50;99.90;;;;;;5093236;28;20199;-74
2022/11/08 08:06:12;;;;;;;16.90;11.37;;;16.00;99.90;;;;;;5095518;28;20194;-73
2022/11/08 08:08:38;;;;;;;18.37;12.37;;;16.40;99.90;;;;;;5095972;28;20179;-75
2022/11/08 08:11:04;;;;;;;14.47;10.27;;;16.40;99.90;;;;;;5113597;28;20644;-74
2022/11/08 08:13:30;;;;;;;16.90;11.90;;;16.30;99.90;;;;;;5095330;28;20266;-73
2022/11/08 08:16:00;;;;;;;18.27;11.73;;;16.20;99.90;;;;;;5097098;28;20782;-73
2022/11/08 08:18:26;;;;;;;14.83;11.67;;;16.10;99.90;;;;;;5116403;28;20420;-74
2022/11/08 08:20:52;;;;;;;19.50;13.00;;;16.00;99.90;;;;;;5115995;28;20460;-74
2022/11/08 08:23:17;;;;;;;20.73;14.50;;;15.80;99.90;;;;;;5115529;28;20459;-74
2022/11/08 08:25:43;;;;;;;22.03;13.93;;;15.60;99.90;;;;;;5114846;28;20210;-73
2022/11/08 08:28:09;;;;;;;22.43;13.63;;;15.30;99.90;;;;;;5114217;28;20192;-74
2022/11/08 08:30:35;;;;;;;19.27;13.97;;;15.10;99.90;;;;;;5096190;28;20220;-73
2022/11/08 08:33:13;;;;;;;19.60;13.37;;;14.90;99.90;;;;;;5096429;28;20469;-74
2022/11/08 08:35:39;;;;;;;22.30;14.00;;;14.70;99.90;;;;;;5115165;28;20542;-74
2022/11/08 08:38:06;;;;;;;20.53;14.93;;;14.50;99.90;;;;;;5115552;28;20424;-73
2022/11/08 08:40:32;;;;;;;21.63;15.17;;;14.40;99.90;;;;;;5115197;28;20431;-74
2022/11/08 08:42:59;;;;;;;30.20;17.43;;;14.20;99.90;;;;;;5095338;28;20448;-74
2022/11/08 08:45:26;;;;;;;24.80;16.10;;;14.10;99.90;;;;;;5096345;28;20474;-74
2022/11/08 08:47:53;;;;;;;26.50;16.83;;;14.00;99.90;;;;;;5113224;28;20497;-72
2022/11/08 08:50:20;;;;;;;27.43;16.63;;;14.00;99.90;;;;;;5111801;28;20488;-73
2022/11/08 08:52:45;;;;;;;30.37;19.37;;;14.00;99.90;;;;;;5113328;28;20404;-73
2022/11/08 08:55:11;;;;;;;30.63;18.90;;;14.10;99.90;;;;;;5112587;28;20420;-73
2022/11/08 08:57:37;;;;;;;31.93;19.97;;;14.20;99.90;;;;;;5113737;28;20226;-74
2022/11/08 09:00:04;;;;;;;32.40;17.90;;;14.40;99.90;;;;;;5112399;28;20424;-73
2022/11/08 09:02:29;;;;;;;32.83;17.63;;;14.60;99.90;;;;;;5094684;28;20186;-73
2022/11/08 09:04:55;;;;;;;29.93;18.37;;;14.70;99.90;;;;;;5094488;28;20530;-73
2022/11/08 09:07:21;;;;;;;29.13;18.70;;;14.90;99.90;;;;;;5113037;28;20172;-74
2022/11/08 09:09:47;;;;;;;27.03;18.00;;;15.30;99.90;;;;;;5110539;28;20487;-72
2022/11/08 09:12:13;;;;;;;29.00;17.60;;;15.70;99.90;;;;;;5110467;28;20408;-73
2022/11/08 09:14:38;;;;;;;24.50;17.93;;;16.10;99.90;;;;;;5109134;28;20184;-73
2022/11/08 09:17:04;;;;;;;28.33;17.77;;;16.30;99.90;;;;;;5108853;28;20434;-74
2022/11/08 09:19:30;;;;;;;26.10;18.73;;;16.40;99.90;;;;;;5092477;28;20618;-73
2022/11/08 09:21:55;;;;;;;28.40;19.40;;;16.40;99.90;;;;;;5083994;28;20218;-73
2022/11/08 09:24:21;;;;;;;27.83;19.40;;;16.30;99.90;;;;;;5111080;28;20586;-72
2022/11/08 09:26:47;;;;;;;27.33;17.90;;;16.10;99.90;;;;;;5110729;28;20183;-74
2022/11/08 09:29:12;;;;;;;33.67;19.00;;;16.00;99.90;;;;;;5089901;28;20552;-73
2022/11/08 09:31:38;;;;;;;26.60;17.97;;;15.80;99.90;;;;;;5109407;28;20204;-74
2022/11/08 09:34:03;;;;;;;28.40;18.23;;;15.80;99.90;;;;;;5084989;28;20194;-73
2022/11/08 09:36:29;;;;;;;30.13;19.17;;;15.60;99.90;;;;;;5091135;28;20596;-74
2022/11/08 09:38:55;;;;;;;32.80;20.30;;;15.50;99.90;;;;;;5089720;28;20511;-74
2022/11/08 09:41:30;;;;;;;35.00;20.67;;;15.40;99.90;;;;;;5089330;28;20744;-74
2022/11/08 09:44:30;;;;;;;33.30;20.90;;;15.40;99.90;;;;;;5105730;28;20240;-74
2022/11/08 09:47:03;;;;;;;30.13;18.67;;;15.30;99.90;;;;;;5081615;28;20805;-74
2022/11/08 09:49:59;;;;;;;32.20;19.03;;;15.20;99.90;;;;;;5089218;28;20464;-74
2022/11/08 09:52:27;;;;;;;33.40;21.07;;;15.10;99.90;;;;;;5107848;28;20410;-72
2022/11/08 09:55:08;;;;;;;28.63;19.13;;;15.10;99.90;;;;;;5103122;28;20451;-74
2022/11/08 09:58:12;;;;;;;29.80;19.50;;;15.00;99.90;;;;;;5088574;28;20416;-72
2022/11/08 10:00:39;;;;;;;27.90;18.33;;;15.00;99.90;;;;;;5096411;28;20521;-72
2022/11/08 10:03:10;;;;;;;37.10;22.17;;;15.00;99.90;;;;;;5083216;28;20430;-73
2022/11/08 10:05:41;;;;;;;30.67;19.90;;;14.90;99.90;;;;;;5085408;28;20456;-72
2022/11/08 10:08:25;;;;;;;32.80;19.80;;;14.90;99.90;;;;;;5086351;28;20450;-74
2022/11/08 10:11:24;;;;;;;34.83;21.17;;;14.90;99.90;;;;;;5084893;28;21094;-72
2022/11/08 10:14:14;;;;;;;34.43;20.80;;;14.90;99.90;;;;;;5059681;28;20440;-74
2022/11/08 10:16:54;;;;;;;36.80;20.43;;;14.90;99.90;;;;;;5093570;28;20436;-74
2022/11/08 10:19:22;;;;;;;36.00;21.03;;;15.00;99.90;;;;;;5087557;28;20785;-72
2022/11/08 10:22:01;;;;;;;29.77;19.20;;;15.00;99.90;;;;;;5105696;28;20400;-72
2022/11/08 10:24:48;;;;;;;37.00;20.87;;;15.00;99.90;;;;;;5086835;28;20518;-74
2022/11/08 10:27:38;;;;;;;32.70;20.37;;;15.10;99.90;;;;;;5094132;28;20448;-73
2022/11/08 10:30:23;;;;;;;35.20;19.87;;;15.10;99.90;;;;;;5094705;28;20558;-72
2022/11/08 10:32:54;;;;;;;31.97;19.60;;;15.10;99.90;;;;;;5109509;27;20420;-73
2022/11/08 10:35:39;;;;;;;33.67;20.20;;;15.10;99.90;;;;;;5102005;28;20966;-73
2022/11/08 10:38:23;;;;;;;30.87;19.67;;;15.10;99.90;;;;;;5086665;28;20523;-73
2022/11/08 10:41:00;;;;;;;28.23;18.40;;;15.10;99.90;;;;;;5089443;28;20527;-73
2022/11/08 10:43:35;;;;;;;31.60;18.50;;;15.10;99.90;;;;;;5093586;28;20770;-73
2022/11/08 10:46:01;;;;;;;30.90;18.90;;;15.10;99.90;;;;;;5092219;28;20951;-74
2022/11/08 10:48:26;;;;;;;32.03;18.30;;;15.20;99.90;;;;;;5109067;28;20439;-73
2022/11/08 10:50:52;;;;;;;28.90;18.03;;;15.20;99.90;;;;;;5108028;28;20359;-73
2022/11/08 10:53:31;;;;;;;28.83;18.13;;;15.20;99.90;;;;;;5085606;28;20204;-73
2022/11/08 10:56:05;;;;;;;30.90;18.53;;;15.20;99.90;;;;;;5088120;28;20459;-73
2022/11/08 10:58:41;;;;;;;29.60;17.53;;;15.20;99.90;;;;;;5112289;28;20463;-73
2022/11/08 11:01:14;;;;;;;28.57;17.27;;;15.20;99.90;;;;;;5111499;28;20466;-74
2022/11/08 11:03:40;;;;;;;35.77;20.47;;;15.30;99.90;;;;;;5107138;28;20440;-73
2022/11/08 11:06:29;;;;;;;33.23;19.37;;;15.30;99.90;;;;;;5111284;28;21007;-72
2022/11/08 11:09:19;;;;;;;29.27;17.80;;;15.30;99.90;;;;;;5094769;28;20489;-73
2022/11/08 11:11:44;;;;;;;27.23;16.50;;;15.30;99.90;;;;;;5094385;28;20432;-72
2022/11/08 11:14:20;;;;;;;30.10;18.43;;;15.30;99.90;;;;;;5112134;28;20435;-73
2022/11/08 11:17:01;;;;;;;29.23;17.90;;;15.30;99.90;;;;;;5091512;28;20659;-73
2022/11/08 11:19:28;;;;;;;32.93;19.60;;;15.30;99.90;;;;;;5110878;28;20462;-73
2022/11/08 11:22:06;;;;;;;30.80;17.33;;;15.20;99.90;;;;;;5112771;28;20423;-73
2022/11/08 11:24:34;;;;;;;35.43;19.30;;;15.20;99.90;;;;;;5096549;28;20503;-73
2022/11/08 11:27:03;;;;;;;30.57;19.03;;;15.20;99.90;;;;;;5110667;28;20404;-72
2022/11/08 11:29:34;;;;;;;31.23;18.20;;;15.20;99.90;;;;;;5111987;28;20464;-74
2022/11/08 11:32:33;;;;;;;32.30;19.90;;;15.20;99.90;;;;;;5107383;28;20503;-72
2022/11/08 11:35:01;;;;;;;29.27;17.47;;;15.20;99.90;;;;;;5110589;28;20878;-72
2022/11/08 11:37:39;;;;;;;33.77;20.60;;;15.10;99.90;;;;;;5103810;28;20461;-72
2022/11/08 11:40:36;;;;;;;33.60;20.17;;;15.20;99.90;;;;;;5107618;28;20451;-72
2022/11/08 11:43:08;;;;;;;33.93;19.30;;;15.10;99.90;;;;;;5092765;28;20446;-74
2022/11/08 11:45:51;;;;;;;33.23;19.07;;;15.10;99.90;;;;;;5108909;28;20481;-72
2022/11/08 11:48:28;;;;;;;33.57;19.50;;;15.10;99.90;;;;;;5103214;28;20911;-74
2022/11/08 11:50:55;;;;;;;34.83;20.80;;;15.10;99.90;;;;;;5102106;28;20514;-73
2022/11/08 11:53:27;;;;;;;37.90;23.17;;;15.10;99.90;;;;;;5106371;28;20912;-72
2022/11/08 11:56:05;;;;;;;35.80;23.50;;;15.20;99.90;;;;;;5092047;28;20444;-74
2022/11/08 11:59:07;;;;;;;39.10;22.50;;;15.10;99.90;;;;;;5091705;28;20440;-74
2022/11/08 12:02:08;;;;;;;38.67;24.77;;;15.10;99.90;;;;;;5091378;28;20943;-72
2022/11/08 12:04:41;;;;;;;40.37;24.10;;;15.10;99.90;;;;;;5109373;28;20460;-72
2022/11/08 12:07:12;;;;;;;41.43;24.47;;;15.00;99.90;;;;;;5107442;28;21070;-74
2022/11/08 12:09:43;;;;;;;37.47;22.27;;;15.00;99.90;;;;;;5113959;28;20471;-74
2022/11/08 12:12:31;;;;;;;41.27;23.70;;;15.00;99.90;;;;;;5093669;28;20774;-72
2022/11/08 12:15:07;;;;;;;39.13;23.37;;;15.00;99.90;;;;;;5094819;28;20476;-72
2022/11/08 12:18:14;;;;;;;40.43;23.70;;;15.00;99.90;;;;;;5111476;28;20400;-74
2022/11/08 12:20:56;;;;;;;35.27;20.63;;;15.00;99.90;;;;;;5113669;28;20930;-74
2022/11/08 12:23:31;;;;;;;41.37;23.97;;;15.10;99.90;;;;;;5113915;28;21094;-74
2022/11/08 12:26:13;;;;;;;36.30;21.93;;;15.10;99.90;;;;;;5105660;28;20462;-73
2022/11/08 12:28:52;;;;;;;38.43;21.33;;;15.20;99.90;;;;;;5094238;28;20431;-73
2022/11/08 12:31:27;;;;;;;39.87;23.83;;;15.10;99.90;;;;;;5091338;28;20531;-74
2022/11/08 12:34:14;;;;;;;37.50;22.37;;;15.10;99.90;;;;;;5080670;28;20447;-73
2022/11/08 12:37:01;;;;;;;37.13;22.60;;;15.10;99.90;;;;;;5106119;28;20486;-73
2022/11/08 12:39:46;;;;;;;41.27;25.03;;;15.10;99.90;;;;;;5090960;28;20521;-73
2022/11/08 12:42:20;;;;;;;30.90;19.77;;;15.10;99.90;;;;;;5085741;28;20791;-74
2022/11/08 12:45:12;;;;;;;38.83;23.50;;;15.10;99.90;;;;;;5105360;28;20455;-72
2022/11/08 12:47:47;;;;;;;30.00;20.97;;;15.10;99.90;;;;;;5071561;28;20935;-73
2022/11/08 12:50:47;;;;;;;35.33;20.60;;;15.10;99.90;;;;;;5101091;27;20511;-73
2022/11/08 12:53:38;;;;;;;30.43;20.67;;;15.10;99.90;;;;;;5087235;28;20973;-73
2022/11/08 12:56:10;;;;;;;32.63;21.90;;;15.10;99.90;;;;;;5105901;28;20779;-73
2022/11/08 12:58:41;;;;;;;34.37;20.77;;;15.10;99.90;;;;;;5089159;28;20435;-73
2022/11/08 13:01:16;;;;;;;37.47;21.70;;;15.10;99.90;;;;;;5092893;28;20459;-74
2022/11/08 13:03:45;;;;;;;37.00;23.00;;;15.20;99.90;;;;;;5094174;28;20428;-73
2022/11/08 13:06:33;;;;;;;36.27;22.23;;;15.20;99.90;;;;;;5091484;28;20432;-74
2022/11/08 13:09:14;;;;;;;41.03;22.73;;;15.30;99.90;;;;;;5092024;28;20444;-73